sensor_id;sensor_type;location;lat;lon;timestamp;pressure;altitude;pressure_sealevel;temperature;humidity
25722;BME280;13578;53.450;15.496;2023-04-09T00:00:32;100742.91;;;4.26;100.00
25722;BME280;13578;53.450;15.496;2023-04-09T00:03:33;100735.75;;;4.25;100.00
25722;BME280;13578;53.450;15.496;2023-04-09T00:06:34;100728.78;;;4.20;100.00
25722;BME280;13578;53.450;15.496;2023-04-09T00:09:34;100735.38;;;4.14;100.00
25722;BME280;13578;53.450;15.496;2023-04-09T00:12:35;100743.75;;;4.09;100.00
25722;BME280;13578;53.450;15.496;2023-04-09T00:15:37;100741.25;;;4.05;100.00
25722;BME280;13578;53.450;15.496;2023-04-09T00:18:37;100731.50;;;4.01;100.00
25722;BME280;13578;53.450;15.496;2023-04-09T00:21:38;100728.91;;;3.97;100.00
25722;BME280;13578;53.450;15.496;2023-04-09T00:24:38;100719.03;;;3.96;100.00
25722;BME280;13578;53.450;15.496;2023-04-09T00:27:39;100711.75;;;3.97;100.00
25722;BME280;13578;53.450;15.496;2023-04-09T00:30:40;100715.28;;;3.99;100.00
25722;BME280;13578;53.450;15.496;2023-04-09T00:33:40;100712.56;;;3.99;100.00
25722;BME280;13578;53.450;15.496;2023-04-09T00:36:41;100707.34;;;3.94;100.00
25722;BME280;13578;53.450;15.496;2023-04-09T00:39:42;100712.78;;;3.94;100.00
25722;BME280;13578;53.450;15.496;2023-04-09T00:42:42;100720.09;;;3.92;100.00
25722;BME280;13578;53.450;15.496;2023-04-09T00:45:44;100722.16;;;3.87;100.00
25722;BME280;13578;53.450;15.496;2023-04-09T00:48:44;100721.06;;;3.91;100.00
25722;BME280;13578;53.450;15.496;2023-04-09T00:51:45;100711.53;;;3.83;100.00
25722;BME280;13578;53.450;15.496;2023-04-09T00:54:50;100718.34;;;3.72;100.00
25722;BME280;13578;53.450;15.496;2023-04-09T00:57:51;100701.59;;;3.62;100.00
25722;BME280;13578;53.450;15.496;2023-04-09T01:00:52;100712.47;;;3.62;100.00
25722;BME280;13578;53.450;15.496;2023-04-09T01:03:53;100721.53;;;3.61;100.00
25722;BME280;13578;53.450;15.496;2023-04-09T01:07:24;100716.06;;;3.63;100.00
25722;BME280;13578;53.450;15.496;2023-04-09T01:10:45;100726.69;;;3.68;100.00
25722;BME280;13578;53.450;15.496;2023-04-09T01:13:58;100722.50;;;3.60;100.00
25722;BME280;13578;53.450;15.496;2023-04-09T01:17:05;100723.41;;;3.61;100.00
25722;BME280;13578;53.450;15.496;2023-04-09T01:27:07;100716.41;;;3.55;100.00
25722;BME280;13578;53.450;15.496;2023-04-09T01:30:09;100714.94;;;3.48;100.00
25722;BME280;13578;53.450;15.496;2023-04-09T01:33:15;100716.19;;;3.60;100.00
25722;BME280;13578;53.450;15.496;2023-04-09T01:36:17;100723.75;;;3.72;100.00
25722;BME280;13578;53.450;15.496;2023-04-09T01:39:18;100721.00;;;3.74;100.00
25722;BME280;13578;53.450;15.496;2023-04-09T01:42:19;100719.22;;;3.73;100.00
25722;BME280;13578;53.450;15.496;2023-04-09T01:45:21;100711.09;;;3.73;100.00
25722;BME280;13578;53.450;15.496;2023-04-09T01:48:22;100716.56;;;3.71;100.00
25722;BME280;13578;53.450;15.496;2023-04-09T01:51:23;100707.47;;;3.72;100.00
25722;BME280;13578;53.450;15.496;2023-04-09T01:54:26;100712.91;;;3.72;100.00
25722;BME280;13578;53.450;15.496;2023-04-09T01:57:27;100717.47;;;3.72;100.00
25722;BME280;13578;53.450;15.496;2023-04-09T02:00:34;100711.13;;;3.71;100.00
25722;BME280;13578;53.450;15.496;2023-04-09T02:03:45;100701.47;;;3.65;100.00
25722;BME280;13578;53.450;15.496;2023-04-09T02:07:04;100695.31;;;3.62;100.00
25722;BME280;13578;53.450;15.496;2023-04-09T02:10:07;100703.06;;;3.70;100.00
25722;BME280;13578;53.450;15.496;2023-04-09T02:13:14;100695.97;;;3.67;100.00
25722;BME280;13578;53.450;15.496;2023-04-09T02:16:16;100695.13;;;3.65;100.00
25722;BME280;13578;53.450;15.496;2023-04-09T02:19:17;100691.78;;;3.60;100.00
25722;BME280;13578;53.450;15.496;2023-04-09T02:22:17;100695.44;;;3.59;100.00
25722;BME280;13578;53.450;15.496;2023-04-09T02:25:18;100699.84;;;3.61;100.00
25722;BME280;13578;53.450;15.496;2023-04-09T02:28:19;100702.75;;;3.57;100.00
25722;BME280;13578;53.450;15.496;2023-04-09T02:31:19;100697.81;;;3.46;100.00
25722;BME280;13578;53.450;15.496;2023-04-09T02:34:20;100700.41;;;3.49;100.00
25722;BME280;13578;53.450;15.496;2023-04-09T02:37:20;100698.34;;;3.54;100.00
25722;BME280;13578;53.450;15.496;2023-04-09T02:40:21;100702.84;;;3.55;100.00
25722;BME280;13578;53.450;15.496;2023-04-09T02:43:22;100698.66;;;3.48;100.00
25722;BME280;13578;53.450;15.496;2023-04-09T02:46:22;100704.00;;;3.49;100.00
25722;BME280;13578;53.450;15.496;2023-04-09T02:49:23;100689.03;;;3.41;100.00
25722;BME280;13578;53.450;15.496;2023-04-09T02:52:24;100695.72;;;3.53;100.00
25722;BME280;13578;53.450;15.496;2023-04-09T02:55:25;100686.47;;;3.57;100.00
25722;BME280;13578;53.450;15.496;2023-04-09T02:58:26;100695.34;;;3.60;100.00
25722;BME280;13578;53.450;15.496;2023-04-09T03:01:27;100687.19;;;3.60;100.00
25722;BME280;13578;53.450;15.496;2023-04-09T03:04:27;100687.44;;;3.56;100.00
25722;BME280;13578;53.450;15.496;2023-04-09T03:07:28;100682.88;;;3.56;100.00
25722;BME280;13578;53.450;15.496;2023-04-09T03:10:28;100687.16;;;3.62;100.00
25722;BME280;13578;53.450;15.496;2023-04-09T03:13:29;100685.00;;;3.69;100.00
25722;BME280;13578;53.450;15.496;2023-04-09T03:16:30;100677.09;;;3.64;100.00
25722;BME280;13578;53.450;15.496;2023-04-09T03:19:30;100687.91;;;3.65;100.00
25722;BME280;13578;53.450;15.496;2023-04-09T03:22:38;100688.69;;;3.68;100.00
25722;BME280;13578;53.450;15.496;2023-04-09T03:25:38;100677.47;;;3.56;100.00
25722;BME280;13578;53.450;15.496;2023-04-09T03:28:39;100681.50;;;3.67;100.00
25722;BME280;13578;53.450;15.496;2023-04-09T03:31:40;100676.34;;;3.60;100.00
25722;BME280;13578;53.450;15.496;2023-04-09T03:34:40;100682.25;;;3.70;100.00
25722;BME280;13578;53.450;15.496;2023-04-09T03:37:41;100692.50;;;3.63;100.00
25722;BME280;13578;53.450;15.496;2023-04-09T03:40:42;100701.31;;;3.69;100.00
25722;BME280;13578;53.450;15.496;2023-04-09T03:43:42;100691.78;;;3.60;100.00
25722;BME280;13578;53.450;15.496;2023-04-09T03:46:43;100699.84;;;3.61;100.00
25722;BME280;13578;53.450;15.496;2023-04-09T03:49:44;100692.41;;;3.65;100.00
25722;BME280;13578;53.450;15.496;2023-04-09T03:52:44;100691.03;;;3.56;100.00
25722;BME280;13578;53.450;15.496;2023-04-09T03:55:45;100701.88;;;3.56;100.00
25722;BME280;13578;53.450;15.496;2023-04-09T03:58:45;100689.75;;;3.44;100.00
25722;BME280;13578;53.450;15.496;2023-04-09T04:01:47;100691.31;;;3.50;100.00
25722;BME280;13578;53.450;15.496;2023-04-09T04:04:48;100700.13;;;3.55;100.00
25722;BME280;13578;53.450;15.496;2023-04-09T04:07:49;100684.88;;;3.53;100.00
25722;BME280;13578;53.450;15.496;2023-04-09T04:10:49;100681.34;;;3.50;100.00
25722;BME280;13578;53.450;15.496;2023-04-09T04:13:50;100684.22;;;3.67;100.00
25722;BME280;13578;53.450;15.496;2023-04-09T04:16:50;100684.34;;;3.63;100.00
25722;BME280;13578;53.450;15.496;2023-04-09T04:19:51;100694.28;;;3.64;100.00
25722;BME280;13578;53.450;15.496;2023-04-09T04:22:52;100689.78;;;3.63;100.00
25722;BME280;13578;53.450;15.496;2023-04-09T04:25:52;100689.72;;;3.65;100.00
25722;BME280;13578;53.450;15.496;2023-04-09T04:28:53;100685.31;;;3.62;100.00
25722;BME280;13578;53.450;15.496;2023-04-09T04:31:54;100691.78;;;3.60;100.00
25722;BME280;13578;53.450;15.496;2023-04-09T04:34:54;100702.13;;;3.71;100.00
25722;BME280;13578;53.450;15.496;2023-04-09T04:37:55;100702.66;;;3.79;100.00
25722;BME280;13578;53.450;15.496;2023-04-09T04:40:56;100696.56;;;3.74;100.00
25722;BME280;13578;53.450;15.496;2023-04-09T04:43:56;100693.38;;;3.83;100.00
25722;BME280;13578;53.450;15.496;2023-04-09T04:46:57;100694.63;;;3.76;100.00
25722;BME280;13578;53.450;15.496;2023-04-09T04:49:58;100693.47;;;3.81;100.00
25722;BME280;13578;53.450;15.496;2023-04-09T04:52:59;100713.00;;;3.90;100.00
25722;BME280;13578;53.450;15.496;2023-04-09T04:55:59;100702.22;;;3.88;100.00
25722;BME280;13578;53.450;15.496;2023-04-09T04:59:00;100698.38;;;3.92;100.00
25722;BME280;13578;53.450;15.496;2023-04-09T05:02:01;100700.38;;;3.89;100.00
25722;BME280;13578;53.450;15.496;2023-04-09T05:05:01;100710.28;;;3.90;100.00
25722;BME280;13578;53.450;15.496;2023-04-09T05:08:02;100706.91;;;3.85;100.00
25722;BME280;13578;53.450;15.496;2023-04-09T05:11:03;100714.75;;;3.91;100.00
25722;BME280;13578;53.450;15.496;2023-04-09T05:14:04;100711.81;;;3.95;100.00
25722;BME280;13578;53.450;15.496;2023-04-09T05:17:05;100700.78;;;3.98;100.00
25722;BME280;13578;53.450;15.496;2023-04-09T05:20:06;100706.53;;;3.92;100.00
25722;BME280;13578;53.450;15.496;2023-04-09T05:23:07;100703.50;;;3.98;100.00
25722;BME280;13578;53.450;15.496;2023-04-09T05:26:11;100714.97;;;4.05;100.00
25722;BME280;13578;53.450;15.496;2023-04-09T05:29:12;100707.66;;;4.07;100.00
25722;BME280;13578;53.450;15.496;2023-04-09T05:32:13;100709.69;;;4.02;100.00
25722;BME280;13578;53.450;15.496;2023-04-09T05:35:13;100698.75;;;4.04;100.00
25722;BME280;13578;53.450;15.496;2023-04-09T05:38:14;100708.06;;;4.17;100.00
25722;BME280;13578;53.450;15.496;2023-04-09T05:41:14;100709.97;;;4.15;100.00
25722;BME280;13578;53.450;15.496;2023-04-09T05:44:15;100711.88;;;4.13;100.00
25722;BME280;13578;53.450;15.496;2023-04-09T05:47:15;100711.72;;;4.16;100.00
25722;BME280;13578;53.450;15.496;2023-04-09T05:50:16;100695.75;;;4.10;100.00
25722;BME280;13578;53.450;15.496;2023-04-09T05:53:18;100713.19;;;4.23;100.00
25722;BME280;13578;53.450;15.496;2023-04-09T05:56:19;100698.97;;;4.18;100.00
25722;BME280;13578;53.450;15.496;2023-04-09T05:59:22;100701.28;;;4.26;100.00
25722;BME280;13578;53.450;15.496;2023-04-09T06:02:23;100705.69;;;4.28;100.00
25722;BME280;13578;53.450;15.496;2023-04-09T06:05:24;100709.53;;;4.24;100.00
25722;BME280;13578;53.450;15.496;2023-04-09T06:08:25;100709.78;;;4.37;100.00
25722;BME280;13578;53.450;15.496;2023-04-09T06:11:26;100713.41;;;4.38;100.00
25722;BME280;13578;53.450;15.496;2023-04-09T06:14:26;100711.31;;;4.43;100.00
25722;BME280;13578;53.450;15.496;2023-04-09T06:17:27;100706.69;;;4.45;100.00
25722;BME280;13578;53.450;15.496;2023-04-09T06:20:28;100722.06;;;4.46;100.00
25722;BME280;13578;53.450;15.496;2023-04-09T06:23:29;100701.09;;;4.48;100.00
25722;BME280;13578;53.450;15.496;2023-04-09T06:26:29;100718.84;;;4.55;100.00
25722;BME280;13578;53.450;15.496;2023-04-09T06:29:30;100711.69;;;4.54;100.00
25722;BME280;13578;53.450;15.496;2023-04-09T06:32:30;100710.31;;;4.63;100.00
25722;BME280;13578;53.450;15.496;2023-04-09T06:35:31;100713.84;;;4.65;100.00
25722;BME280;13578;53.450;15.496;2023-04-09T06:38:32;100716.25;;;4.71;100.00
25722;BME280;13578;53.450;15.496;2023-04-09T06:41:32;100714.56;;;4.69;100.00
25722;BME280;13578;53.450;15.496;2023-04-09T06:44:33;100725.28;;;4.72;100.00
25722;BME280;13578;53.450;15.496;2023-04-09T06:47:34;100710.22;;;4.65;100.00
25722;BME280;13578;53.450;15.496;2023-04-09T06:50:35;100715.22;;;4.74;100.00
25722;BME280;13578;53.450;15.496;2023-04-09T06:53:37;100721.22;;;4.81;100.00
25722;BME280;13578;53.450;15.496;2023-04-09T06:56:37;100722.09;;;4.81;100.00
25722;BME280;13578;53.450;15.496;2023-04-09T06:59:38;100719.78;;;4.91;100.00
25722;BME280;13578;53.450;15.496;2023-04-09T07:02:38;100723.78;;;5.01;100.00
25722;BME280;13578;53.450;15.496;2023-04-09T07:05:39;100737.16;;;5.06;100.00
25722;BME280;13578;53.450;15.496;2023-04-09T07:08:40;100732.03;;;5.17;100.00
25722;BME280;13578;53.450;15.496;2023-04-09T07:11:41;100732.66;;;5.22;100.00
25722;BME280;13578;53.450;15.496;2023-04-09T07:14:41;100742.44;;;5.27;100.00
25722;BME280;13578;53.450;15.496;2023-04-09T07:17:42;100741.22;;;5.32;100.00
25722;BME280;13578;53.450;15.496;2023-04-09T07:20:42;100743.78;;;5.35;100.00
25722;BME280;13578;53.450;15.496;2023-04-09T07:23:43;100737.94;;;5.25;100.00
25722;BME280;13578;53.450;15.496;2023-04-09T07:26:44;100738.50;;;5.32;100.00
25722;BME280;13578;53.450;15.496;2023-04-09T07:29:44;100734.56;;;5.38;100.00
25722;BME280;13578;53.450;15.496;2023-04-09T07:32:45;100742.19;;;5.31;100.00
25722;BME280;13578;53.450;15.496;2023-04-09T07:35:46;100747.44;;;5.34;100.00
25722;BME280;13578;53.450;15.496;2023-04-09T07:38:46;100754.41;;;5.40;100.00
25722;BME280;13578;53.450;15.496;2023-04-09T07:41:47;100751.59;;;5.41;100.00
25722;BME280;13578;53.450;15.496;2023-04-09T07:44:48;100751.22;;;5.49;100.00
25722;BME280;13578;53.450;15.496;2023-04-09T07:47:49;100750.25;;;5.50;100.00
25722;BME280;13578;53.450;15.496;2023-04-09T07:50:49;100752.63;;;5.56;100.00
25722;BME280;13578;53.450;15.496;2023-04-09T07:53:50;100739.88;;;5.57;100.00
25722;BME280;13578;53.450;15.496;2023-04-09T07:56:51;100752.44;;;5.60;100.00
25722;BME280;13578;53.450;15.496;2023-04-09T07:59:52;100748.31;;;5.52;100.00
25722;BME280;13578;53.450;15.496;2023-04-09T08:02:53;100757.56;;;5.66;100.00
25722;BME280;13578;53.450;15.496;2023-04-09T08:05:54;100749.16;;;5.70;100.00
25722;BME280;13578;53.450;15.496;2023-04-09T08:08:54;100749.38;;;5.66;100.00
25722;BME280;13578;53.450;15.496;2023-04-09T08:11:55;100758.84;;;5.76;100.00
25722;BME280;13578;53.450;15.496;2023-04-09T08:14:56;100758.41;;;5.84;100.00
25722;BME280;13578;53.450;15.496;2023-04-09T08:17:57;100757.53;;;5.83;100.00
25722;BME280;13578;53.450;15.496;2023-04-09T08:20:57;100752.88;;;5.85;100.00
25722;BME280;13578;53.450;15.496;2023-04-09T08:23:58;100747.25;;;5.88;100.00
25722;BME280;13578;53.450;15.496;2023-04-09T08:27:03;100753.34;;;5.94;100.00
25722;BME280;13578;53.450;15.496;2023-04-09T08:30:04;100758.09;;;5.90;100.00
25722;BME280;13578;53.450;15.496;2023-04-09T08:33:06;100761.94;;;5.86;100.00
25722;BME280;13578;53.450;15.496;2023-04-09T08:36:09;100749.91;;;5.90;100.00
25722;BME280;13578;53.450;15.496;2023-04-09T08:39:11;100765.91;;;5.96;100.00
25722;BME280;13578;53.450;15.496;2023-04-09T08:42:13;100756.56;;;6.02;100.00
25722;BME280;13578;53.450;15.496;2023-04-09T08:45:14;100769.03;;;6.22;100.00
25722;BME280;13578;53.450;15.496;2023-04-09T08:48:15;100769.94;;;6.23;100.00
25722;BME280;13578;53.450;15.496;2023-04-09T08:51:19;100771.34;;;6.30;100.00
25722;BME280;13578;53.450;15.496;2023-04-09T08:54:20;100776.19;;;6.41;100.00
25722;BME280;13578;53.450;15.496;2023-04-09T08:57:22;100774.88;;;6.48;100.00
25722;BME280;13578;53.450;15.496;2023-04-09T09:00:23;100771.88;;;6.53;100.00
25722;BME280;13578;53.450;15.496;2023-04-09T09:03:23;100780.66;;;6.58;100.00
25722;BME280;13578;53.450;15.496;2023-04-09T09:06:26;100769.59;;;6.61;100.00
25722;BME280;13578;53.450;15.496;2023-04-09T09:09:27;100772.56;;;6.72;100.00
25722;BME280;13578;53.450;15.496;2023-04-09T09:12:39;100778.13;;;6.71;100.00
25722;BME280;13578;53.450;15.496;2023-04-09T09:15:40;100787.00;;;6.74;100.00
25722;BME280;13578;53.450;15.496;2023-04-09T09:18:42;100788.94;;;6.72;100.00
25722;BME280;13578;53.450;15.496;2023-04-09T09:21:54;100797.19;;;6.87;100.00
25722;BME280;13578;53.450;15.496;2023-04-09T09:24:55;100791.56;;;6.90;100.00
25722;BME280;13578;53.450;15.496;2023-04-09T09:28:07;100800.63;;;6.90;100.00
25722;BME280;13578;53.450;15.496;2023-04-09T09:31:08;100804.00;;;7.10;100.00
25722;BME280;13578;53.450;15.496;2023-04-09T09:34:09;100806.66;;;7.11;100.00
25722;BME280;13578;53.450;15.496;2023-04-09T09:37:26;100803.19;;;6.93;100.00
25722;BME280;13578;53.450;15.496;2023-04-09T09:40:30;100810.91;;;7.01;100.00
25722;BME280;13578;53.450;15.496;2023-04-09T09:43:39;100807.31;;;7.31;100.00
25722;BME280;13578;53.450;15.496;2023-04-09T09:46:41;100802.16;;;7.41;100.00
25722;BME280;13578;53.450;15.496;2023-04-09T09:50:01;100810.00;;;7.61;100.00
25722;BME280;13578;53.450;15.496;2023-04-09T09:53:23;100800.56;;;7.82;100.00
25722;BME280;13578;53.450;15.496;2023-04-09T09:56:30;100809.75;;;7.81;100.00
25722;BME280;13578;53.450;15.496;2023-04-09T09:59:36;100817.56;;;8.01;100.00
25722;BME280;13578;53.450;15.496;2023-04-09T10:02:43;100813.97;;;8.30;100.00
25722;BME280;13578;53.450;15.496;2023-04-09T10:05:47;100816.84;;;8.41;100.00
25722;BME280;13578;53.450;15.496;2023-04-09T10:08:48;100834.97;;;8.43;100.00
25722;BME280;13578;53.450;15.496;2023-04-09T10:11:51;100834.78;;;8.47;100.00
25722;BME280;13578;53.450;15.496;2023-04-09T10:14:54;100829.09;;;8.35;100.00
25722;BME280;13578;53.450;15.496;2023-04-09T10:17:56;100829.31;;;8.47;100.00
25722;BME280;13578;53.450;15.496;2023-04-09T10:24:22;100830.97;;;8.91;100.00
25722;BME280;13578;53.450;15.496;2023-04-09T10:27:25;100835.09;;;9.11;100.00
25722;BME280;13578;53.450;15.496;2023-04-09T10:30:34;100834.44;;;9.08;100.00
25722;BME280;13578;53.450;15.496;2023-04-09T10:33:37;100832.78;;;9.32;100.00
25722;BME280;13578;53.450;15.496;2023-04-09T10:36:37;100835.72;;;9.29;100.00
25722;BME280;13578;53.450;15.496;2023-04-09T10:39:44;100827.22;;;9.47;100.00
25722;BME280;13578;53.450;15.496;2023-04-09T10:42:45;100840.09;;;9.72;100.00
25722;BME280;13578;53.450;15.496;2023-04-09T10:45:47;100836.78;;;9.67;100.00
25722;BME280;13578;53.450;15.496;2023-04-09T10:49:11;100836.13;;;9.63;100.00
25722;BME280;13578;53.450;15.496;2023-04-09T10:52:12;100821.00;;;9.83;100.00
25722;BME280;13578;53.450;15.496;2023-04-09T10:55:38;100830.25;;;9.95;100.00
25722;BME280;13578;53.450;15.496;2023-04-09T10:58:39;100816.53;;;9.95;100.00
25722;BME280;13578;53.450;15.496;2023-04-09T11:01:40;100814.22;;;10.02;100.00
25722;BME280;13578;53.450;15.496;2023-04-09T11:08:15;100818.47;;;10.32;100.00
25722;BME280;13578;53.450;15.496;2023-04-09T11:11:15;100815.72;;;10.45;100.00
25722;BME280;13578;53.450;15.496;2023-04-09T11:14:19;100804.63;;;10.46;100.00
25722;BME280;13578;53.450;15.496;2023-04-09T11:17:20;100822.22;;;10.81;100.00
25722;BME280;13578;53.450;15.496;2023-04-09T11:20:23;100819.44;;;10.94;100.00
25722;BME280;13578;53.450;15.496;2023-04-09T11:23:24;100821.72;;;11.00;100.00
25722;BME280;13578;53.450;15.496;2023-04-09T11:26:34;100833.44;;;11.15;100.00
25722;BME280;13578;53.450;15.496;2023-04-09T11:29:35;100794.59;;;10.95;100.00
25722;BME280;13578;53.450;15.496;2023-04-09T11:32:36;100801.53;;;11.12;100.00
25722;BME280;13578;53.450;15.496;2023-04-09T11:35:36;100801.94;;;11.43;100.00
25722;BME280;13578;53.450;15.496;2023-04-09T11:38:37;100787.31;;;11.43;100.00
25722;BME280;13578;53.450;15.496;2023-04-09T11:41:38;100780.91;;;11.31;100.00
25722;BME280;13578;53.450;15.496;2023-04-09T11:44:39;100793.59;;;11.45;100.00
25722;BME280;13578;53.450;15.496;2023-04-09T11:47:40;100803.84;;;11.54;100.00
25722;BME280;13578;53.450;15.496;2023-04-09T11:50:42;100791.34;;;11.62;100.00
25722;BME280;13578;53.450;15.496;2023-04-09T11:53:42;100810.88;;;11.70;100.00
25722;BME280;13578;53.450;15.496;2023-04-09T11:56:43;100803.75;;;12.03;100.00
25722;BME280;13578;53.450;15.496;2023-04-09T11:59:44;100791.47;;;12.07;100.00
25722;BME280;13578;53.450;15.496;2023-04-09T12:02:47;100792.47;;;12.29;100.00
25722;BME280;13578;53.450;15.496;2023-04-09T12:05:48;100772.09;;;12.43;100.00
25722;BME280;13578;53.450;15.496;2023-04-09T12:08:55;100773.56;;;12.47;100.00
25722;BME280;13578;53.450;15.496;2023-04-09T12:11:58;100763.19;;;12.50;100.00
25722;BME280;13578;53.450;15.496;2023-04-09T12:15:06;100762.66;;;12.57;100.00
25722;BME280;13578;53.450;15.496;2023-04-09T12:18:11;100705.41;;;12.39;100.00
25722;BME280;13578;53.450;15.496;2023-04-09T12:21:12;100705.81;;;12.67;100.00
25722;BME280;13578;53.450;15.496;2023-04-09T12:24:13;100696.47;;;12.91;100.00
25722;BME280;13578;53.450;15.496;2023-04-09T12:27:14;100660.41;;;12.61;93.63
25722;BME280;13578;53.450;15.496;2023-04-09T12:30:15;100666.06;;;12.48;91.92
25722;BME280;13578;53.450;15.496;2023-04-09T12:33:16;100673.06;;;12.52;93.65
25722;BME280;13578;53.450;15.496;2023-04-09T12:36:16;100703.75;;;12.92;98.21
25722;BME280;13578;53.450;15.496;2023-04-09T12:39:17;100687.84;;;12.84;94.74
25722;BME280;13578;53.450;15.496;2023-04-09T12:42:20;100695.72;;;12.89;92.90
25722;BME280;13578;53.450;15.496;2023-04-09T12:45:20;100705.44;;;13.04;95.67
25722;BME280;13578;53.450;15.496;2023-04-09T12:48:21;100712.91;;;13.13;99.26
25722;BME280;13578;53.450;15.496;2023-04-09T12:51:22;100718.16;;;13.38;100.00
25722;BME280;13578;53.450;15.496;2023-04-09T12:54:24;100672.50;;;13.24;92.59
25722;BME280;13578;53.450;15.496;2023-04-09T12:57:26;100709.69;;;13.29;100.00
25722;BME280;13578;53.450;15.496;2023-04-09T13:00:26;100688.94;;;13.46;96.47
25722;BME280;13578;53.450;15.496;2023-04-09T13:03:30;100680.00;;;13.54;90.83
25722;BME280;13578;53.450;15.496;2023-04-09T13:06:30;100658.41;;;13.38;88.30
25722;BME280;13578;53.450;15.496;2023-04-09T13:09:31;100644.16;;;13.54;86.79
25722;BME280;13578;53.450;15.496;2023-04-09T13:12:32;100678.91;;;13.66;92.25
25722;BME280;13578;53.450;15.496;2023-04-09T13:15:33;100661.75;;;13.63;88.34
25722;BME280;13578;53.450;15.496;2023-04-09T13:18:33;100651.94;;;13.49;85.21
25722;BME280;13578;53.450;15.496;2023-04-09T13:21:35;100681.59;;;13.57;90.24
25722;BME280;13578;53.450;15.496;2023-04-09T13:24:37;100669.56;;;13.58;87.92
25722;BME280;13578;53.450;15.496;2023-04-09T13:27:39;100672.84;;;13.52;88.81
25722;BME280;13578;53.450;15.496;2023-04-09T13:30:40;100659.94;;;13.52;89.60
25722;BME280;13578;53.450;15.496;2023-04-09T13:33:41;100643.09;;;13.55;85.03
25722;BME280;13578;53.450;15.496;2023-04-09T13:36:41;100655.28;;;13.53;85.67
25722;BME280;13578;53.450;15.496;2023-04-09T13:39:43;100669.94;;;13.32;87.44
25722;BME280;13578;53.450;15.496;2023-04-09T13:42:43;100663.44;;;13.33;89.13
25722;BME280;13578;53.450;15.496;2023-04-09T13:45:44;100687.84;;;13.59;91.55
25722;BME280;13578;53.450;15.496;2023-04-09T13:48:45;100659.00;;;13.63;86.96
25722;BME280;13578;53.450;15.496;2023-04-09T13:51:47;100674.47;;;13.54;89.16
25722;BME280;13578;53.450;15.496;2023-04-09T13:54:47;100654.38;;;13.42;87.51
25722;BME280;13578;53.450;15.496;2023-04-09T13:57:48;100647.75;;;13.55;86.48
25722;BME280;13578;53.450;15.496;2023-04-09T14:00:49;100640.34;;;13.55;86.48
25722;BME280;13578;53.450;15.496;2023-04-09T14:03:50;100671.38;;;13.69;91.03
25722;BME280;13578;53.450;15.496;2023-04-09T14:06:51;100659.00;;;13.63;90.13
25722;BME280;13578;53.450;15.496;2023-04-09T14:09:53;100652.28;;;13.56;90.26
25722;BME280;13578;53.450;15.496;2023-04-09T14:12:55;100665.16;;;13.55;92.80
25722;BME280;13578;53.450;15.496;2023-04-09T14:15:57;100658.78;;;13.55;92.19
25722;BME280;13578;53.450;15.496;2023-04-09T14:18:59;100663.38;;;13.44;92.92
25722;BME280;13578;53.450;15.496;2023-04-09T14:22:01;100671.19;;;13.39;95.62
25722;BME280;13578;53.450;15.496;2023-04-09T14:25:07;100691.69;;;13.46;100.00
25722;BME280;13578;53.450;15.496;2023-04-09T14:28:09;100687.56;;;13.41;100.00
25722;BME280;13578;53.450;15.496;2023-04-09T14:31:11;100677.56;;;13.18;100.00
25722;BME280;13578;53.450;15.496;2023-04-09T14:34:13;100711.03;;;13.14;100.00
25722;BME280;13578;53.450;15.496;2023-04-09T14:37:14;100696.22;;;13.15;100.00
25722;BME280;13578;53.450;15.496;2023-04-09T14:40:14;100697.09;;;13.15;100.00
25722;BME280;13578;53.450;15.496;2023-04-09T14:43:15;100686.34;;;13.12;100.00
25722;BME280;13578;53.450;15.496;2023-04-09T14:46:16;100683.53;;;13.02;100.00
25722;BME280;13578;53.450;15.496;2023-04-09T14:49:16;100696.16;;;13.05;100.00
25722;BME280;13578;53.450;15.496;2023-04-09T14:52:17;100689.69;;;12.95;100.00
25722;BME280;13578;53.450;15.496;2023-04-09T14:55:18;100684.88;;;12.76;100.00
25722;BME280;13578;53.450;15.496;2023-04-09T14:58:18;100707.13;;;12.84;100.00
25722;BME280;13578;53.450;15.496;2023-04-09T15:01:19;100695.28;;;12.72;100.00
25722;BME280;13578;53.450;15.496;2023-04-09T15:04:20;100702.09;;;12.57;100.00
25722;BME280;13578;53.450;15.496;2023-04-09T15:07:21;100691.69;;;12.60;100.00
25722;BME280;13578;53.450;15.496;2023-04-09T15:10:21;100703.81;;;12.69;100.00
25722;BME280;13578;53.450;15.496;2023-04-09T15:13:22;100694.09;;;12.53;100.00
25722;BME280;13578;53.450;15.496;2023-04-09T15:16:25;100706.50;;;12.59;100.00
25722;BME280;13578;53.450;15.496;2023-04-09T15:19:27;100719.75;;;12.54;100.00
25722;BME280;13578;53.450;15.496;2023-04-09T15:22:27;100700.00;;;12.49;100.00
25722;BME280;13578;53.450;15.496;2023-04-09T15:25:28;100712.47;;;12.53;100.00
25722;BME280;13578;53.450;15.496;2023-04-09T15:28:29;100710.81;;;12.29;100.00
25722;BME280;13578;53.450;15.496;2023-04-09T15:31:30;100703.41;;;12.30;100.00
25722;BME280;13578;53.450;15.496;2023-04-09T15:34:30;100714.94;;;12.23;100.00
25722;BME280;13578;53.450;15.496;2023-04-09T15:37:31;100717.06;;;12.20;100.00
25722;BME280;13578;53.450;15.496;2023-04-09T15:40:32;100707.19;;;12.06;100.00
25722;BME280;13578;53.450;15.496;2023-04-09T15:43:32;100711.16;;;12.13;100.00
25722;BME280;13578;53.450;15.496;2023-04-09T15:46:33;100727.69;;;12.02;100.00
25722;BME280;13578;53.450;15.496;2023-04-09T15:49:35;100697.31;;;12.03;100.00